メインページ
METAR-TAF:

METAR-TAF

空港 :

リオブランコ, アクレ州, ブラジル

緯度: 10-00S, 経度: 067-48W, 海抜: 142m

現時点の気象観測

当レポートは12分前の11:00(UTC)に作成
無風
気温 23°C
湿度 94%
気圧 1013 hPa
視程: 7000m
高度300ftの千切れ雲あり

METAR: SBRB 221100Z 00000KT 7000 BKN003 23/22 Q1013

時間: 06:12 (11:12 UTC)

予報

当レポートは8時間12分前の03:00(UTC)に作成
予報は22日の 06時(UTC)から 22日の 18時(UTC)まで有効
北東の風 5kt
視程10km以上
高度2000ftの雲は散在している
22日の 11時(UTC)から 22日の 13時(UTC)まで徐々に
高度1000ftの千切れ雲あり
22日の 15時(UTC)から 22日の 17時(UTC)まで徐々に
高度2000ftの雲は散在している
高度3500ftの雲はほとんどない, 塔状積雲.

TAF: SBRB 220300Z 2206/2218 05005KT 9999 SCT020 TN23/2209Z TX30/2217Z BECMG 2211/2213 BKN010 BECMG 2215/2217 SCT020 FEW035TCU RMK PGY

4,000以上の空港の気象観測と天気予報(METAR報とTAF報)

利用可能な観測所は地図上に黄色い丸と赤い丸で示す。

丸の上にカーソルを重ねると観測所名を参照できる。

次にクリックすると気象観測と天気予報を参照できる。

マップの切り替え:黒色「×」印の緑ボタンをクリックして拡大、「-」印の緑ボタンをクリックして縮小、緑色の三角印をクリックして隣りの地図に切り替え


METAR-TAF: